Time;durP1;ratioP1;P1;durP2;ratioP2;P2;SDS_P1;SDS_P2;PMS_P1;PMS_P2;Temp;Humidity;BMP_temperature;BMP_pressure;BME280_temperature;BME280_humidity;BME280_pressure;Samples;Min_cycle;Max_cycle;Signal;HPM_P1;HPM_P2
2021/01/13 00:02:20;;;;;;;14.57;8.13;;;1.70;99.90;;;;;;5079202;28;20323;-86
2021/01/13 00:04:47;;;;;;;15.27;8.70;;;1.80;99.90;;;;;;5078322;28;20297;-86
2021/01/13 00:07:14;;;;;;;11.80;8.45;;;1.80;99.90;;;;;;5079683;28;20444;-86
2021/01/13 00:09:41;;;;;;;11.93;7.25;;;1.80;99.90;;;;;;5079496;28;20251;-87
2021/01/13 00:12:08;;;;;;;10.60;8.15;;;1.80;99.90;;;;;;5079508;28;20205;-86
2021/01/13 00:14:35;;;;;;;19.15;10.93;;;1.80;99.90;;;;;;5079511;28;20280;-86
2021/01/13 00:17:01;;;;;;;10.90;7.93;;;1.90;99.90;;;;;;5078202;28;20300;-87
2021/01/13 00:19:28;;;;;;;16.55;8.50;;;1.90;99.90;;;;;;5079268;28;20198;-87
2021/01/13 00:21:55;;;;;;;13.55;8.75;;;1.90;99.90;;;;;;5079242;28;20229;-87
2021/01/13 00:24:23;;;;;;;14.77;7.80;;;1.90;99.90;;;;;;5079177;28;20759;-87
2021/01/13 00:26:55;;;;;;;9.65;7.13;;;1.90;99.90;;;;;;5078902;28;20671;-87
2021/01/13 00:29:23;;;;;;;9.43;7.28;;;1.90;99.90;;;;;;5088334;28;20280;-85
2021/01/13 00:31:49;;;;;;;12.65;7.38;;;1.90;99.90;;;;;;5098457;28;20295;-87
2021/01/13 00:34:16;;;;;;;11.50;8.13;;;1.90;99.90;;;;;;5099255;28;20244;-87
2021/01/13 00:36:43;;;;;;;10.82;8.07;;;1.90;99.90;;;;;;5099558;28;20288;-87
2021/01/13 00:39:10;;;;;;;10.10;7.50;;;1.90;99.90;;;;;;5099418;28;20308;-86
2021/01/13 00:41:39;;;;;;;8.88;7.75;;;2.00;99.90;;;;;;5099574;28;20235;-88
2021/01/13 00:44:07;;;;;;;14.05;9.15;;;2.00;99.90;;;;;;5099143;28;20196;-86
2021/01/13 00:46:38;;;;;;;12.63;8.60;;;1.90;99.90;;;;;;5094312;28;20232;-86
2021/01/13 00:49:05;;;;;;;9.55;8.55;;;2.00;99.90;;;;;;5095877;28;20571;-86
2021/01/13 00:51:38;;;;;;;9.23;6.57;;;2.00;99.90;;;;;;5096006;28;20196;-86
2021/01/13 00:54:05;;;;;;;11.68;8.30;;;2.00;99.90;;;;;;5096224;28;20212;-89
2021/01/13 00:56:32;;;;;;;10.30;7.20;;;2.00;99.90;;;;;;5096042;28;20291;-84
2021/01/13 00:58:59;;;;;;;9.63;5.88;;;2.10;99.90;;;;;;5095914;28;20251;-85
2021/01/13 01:01:27;;;;;;;11.95;6.60;;;2.10;99.90;;;;;;5098164;28;20324;-89
2021/01/13 01:03:54;;;;;;;11.48;5.47;;;2.10;99.90;;;;;;5096324;28;20251;-86
2021/01/13 01:06:21;;;;;;;9.27;5.75;;;2.00;99.90;;;;;;5095825;28;20259;-84
2021/01/13 01:08:47;;;;;;;13.30;6.03;;;2.00;99.90;;;;;;5095800;28;20291;-84
2021/01/13 01:11:18;;;;;;;8.75;6.25;;;2.00;99.90;;;;;;5095995;28;20354;-84
2021/01/13 01:13:44;;;;;;;8.52;6.95;;;2.00;99.90;;;;;;5095636;28;20304;-86
2021/01/13 01:16:10;;;;;;;6.18;5.30;;;2.00;99.90;;;;;;5093444;28;20291;-83
2021/01/13 01:18:38;;;;;;;12.60;6.97;;;2.00;99.90;;;;;;5075074;28;20338;-83
2021/01/13 01:21:07;;;;;;;9.63;5.88;;;2.00;99.90;;;;;;5075207;28;20312;-82
2021/01/13 01:23:34;;;;;;;10.95;6.72;;;2.10;99.90;;;;;;5074703;28;20205;-82
2021/01/13 01:26:00;;;;;;;9.93;5.78;;;2.10;99.90;;;;;;5075317;28;20296;-82
2021/01/13 01:28:27;;;;;;;7.15;5.75;;;2.10;99.90;;;;;;5074798;28;20316;-82
2021/01/13 01:30:53;;;;;;;8.32;5.45;;;2.10;99.90;;;;;;5092798;28;20273;-82
2021/01/13 01:33:19;;;;;;;11.95;7.57;;;2.10;99.90;;;;;;5096971;28;20288;-84
2021/01/13 01:35:47;;;;;;;11.23;8.35;;;2.00;99.90;;;;;;5101557;28;20236;-83
2021/01/13 01:38:13;;;;;;;32.55;9.50;;;1.90;99.90;;;;;;5112420;28;20197;-83
2021/01/13 01:40:40;;;;;;;17.77;10.93;;;2.00;99.90;;;;;;5118152;28;20205;-84
2021/01/13 01:43:06;;;;;;;17.42;8.45;;;2.00;99.90;;;;;;5117903;28;20221;-84
2021/01/13 01:45:33;;;;;;;17.77;8.95;;;2.00;99.90;;;;;;5102893;28;20607;-83
2021/01/13 01:48:15;;;;;;;8.15;6.07;;;2.00;99.90;;;;;;5095566;28;20614;-83
2021/01/13 01:50:43;;;;;;;16.20;9.65;;;2.00;99.90;;;;;;5095250;28;20204;-83
2021/01/13 01:53:20;;;;;;;18.65;10.10;;;2.00;99.90;;;;;;5094614;28;20204;-83
2021/01/13 01:55:58;;;;;;;11.68;6.35;;;2.10;99.90;;;;;;5094915;28;20655;-83
2021/01/13 01:58:27;;;;;;;12.40;5.45;;;2.10;99.90;;;;;;5093501;28;20204;-84
2021/01/13 02:00:55;;;;;;;11.40;5.35;;;2.20;99.90;;;;;;5093709;28;20251;-84
2021/01/13 02:03:24;;;;;;;7.30;6.10;;;2.10;99.90;;;;;;5093760;28;20200;-85
2021/01/13 02:05:57;;;;;;;11.25;5.50;;;2.10;99.90;;;;;;5094722;28;20205;-84
2021/01/13 02:08:27;;;;;;;8.80;5.07;;;2.20;99.90;;;;;;5094684;28;20222;-84
2021/01/13 02:10:53;;;;;;;6.35;5.40;;;2.10;99.90;;;;;;5094798;28;20252;-84
2021/01/13 02:13:21;;;;;;;5.95;4.65;;;2.30;99.90;;;;;;5094505;28;20292;-84
2021/01/13 02:15:49;;;;;;;5.50;4.32;;;2.30;99.90;;;;;;5093469;28;20209;-84
2021/01/13 02:18:18;;;;;;;6.80;4.43;;;2.20;99.90;;;;;;5093475;28;20204;-83
2021/01/13 02:20:51;;;;;;;10.93;6.75;;;2.20;99.90;;;;;;5094312;28;20216;-84
2021/01/13 02:23:33;;;;;;;6.50;4.88;;;2.30;99.90;;;;;;5094400;28;20266;-84
2021/01/13 02:27:00;;;;;;;6.50;5.00;;;2.30;99.90;;;;;;5094411;28;20251;-84
2021/01/13 02:29:35;;;;;;;7.72;4.25;;;2.40;99.90;;;;;;5094548;28;20292;-84
2021/01/13 02:32:26;;;;;;;8.20;4.50;;;2.40;99.90;;;;;;5092850;28;20235;-83
2021/01/13 02:35:01;;;;;;;5.22;4.20;;;2.30;99.90;;;;;;5089658;28;20197;-84
2021/01/13 02:37:42;;;;;;;7.30;4.45;;;2.40;99.90;;;;;;5094012;28;20287;-83
2021/01/13 02:47:07;;;;;;;5.97;3.80;;;2.60;99.90;;;;;;5092732;28;20600;-83
2021/01/13 02:50:20;;;;;;;8.00;5.05;;;2.70;99.90;;;;;;5093448;28;20204;-84
2021/01/13 02:53:15;;;;;;;10.15;4.60;;;2.60;99.90;;;;;;5093242;28;20212;-87
2021/01/13 02:55:58;;;;;;;7.20;4.03;;;2.60;99.90;;;;;;5080936;28;20296;-87
2021/01/13 02:58:26;;;;;;;5.45;3.88;;;2.70;99.90;;;;;;5091373;28;20289;-85
2021/01/13 03:00:54;;;;;;;6.85;4.45;;;2.60;99.90;;;;;;5086438;28;20233;-86
2021/01/13 03:03:22;;;;;;;5.45;4.38;;;2.60;99.90;;;;;;5073600;28;20289;-86
2021/01/13 03:05:49;;;;;;;9.23;3.95;;;2.60;99.90;;;;;;5073411;28;20288;-85
2021/01/13 03:08:17;;;;;;;5.15;4.68;;;2.70;99.90;;;;;;5073294;28;20653;-85
2021/01/13 03:10:45;;;;;;;6.03;4.75;;;2.70;99.90;;;;;;5072983;28;20248;-86
2021/01/13 03:13:12;;;;;;;7.63;5.07;;;2.60;99.90;;;;;;5073436;28;20259;-86
2021/01/13 03:15:39;;;;;;;6.10;4.28;;;2.70;99.90;;;;;;5072136;28;20296;-86
2021/01/13 03:18:08;;;;;;;10.50;4.53;;;2.70;99.90;;;;;;5073223;28;20608;-85
2021/01/13 03:20:42;;;;;;;5.65;4.50;;;2.70;99.90;;;;;;5073204;28;20288;-85
2021/01/13 03:23:14;;;;;;;7.00;4.72;;;2.70;99.90;;;;;;5073110;28;20265;-83
2021/01/13 03:25:50;;;;;;;6.22;5.65;;;2.70;99.90;;;;;;5072593;28;20233;-85
2021/01/13 03:28:18;;;;;;;5.35;4.15;;;2.70;99.90;;;;;;5072956;28;20738;-84
2021/01/13 03:30:49;;;;;;;5.28;3.72;;;2.60;99.90;;;;;;5071886;28;20301;-86
2021/01/13 03:33:39;;;;;;;4.80;3.83;;;2.50;99.90;;;;;;5073410;28;20273;-85
2021/01/13 03:36:11;;;;;;;7.07;3.20;;;2.50;99.90;;;;;;5073188;28;20626;-85
2021/01/13 03:39:02;;;;;;;9.52;4.15;;;2.50;99.90;;;;;;5073079;28;20779;-87
2021/01/13 03:41:58;;;;;;;4.32;3.75;;;2.50;99.90;;;;;;5035377;28;20224;-85
2021/01/13 03:44:27;;;;;;;9.90;4.13;;;2.60;99.90;;;;;;5093293;28;20302;-86
2021/01/13 03:46:55;;;;;;;4.20;3.80;;;2.70;99.90;;;;;;5092071;28;20205;-87
2021/01/13 03:49:26;;;;;;;4.47;4.10;;;2.60;99.90;;;;;;5092361;28;20291;-87
2021/01/13 03:52:04;;;;;;;9.75;4.22;;;2.50;99.90;;;;;;5093222;28;20234;-86
2021/01/13 03:54:35;;;;;;;7.88;4.00;;;2.40;99.90;;;;;;5093033;28;20737;-86
2021/01/13 03:57:03;;;;;;;4.05;3.15;;;2.40;99.90;;;;;;5093207;28;20213;-87
2021/01/13 03:59:45;;;;;;;4.57;4.18;;;2.30;99.90;;;;;;5090706;28;20208;-86
2021/01/13 04:02:17;;;;;;;6.20;4.60;;;2.30;99.90;;;;;;5091806;28;20289;-86
2021/01/13 04:05:00;;;;;;;4.18;3.70;;;2.40;99.90;;;;;;5094834;28;20254;-85
2021/01/13 04:07:37;;;;;;;5.15;4.07;;;2.30;99.90;;;;;;5090597;28;20406;-86
2021/01/13 04:10:10;;;;;;;6.13;3.80;;;2.30;99.90;;;;;;5093313;28;20196;-86
2021/01/13 04:12:54;;;;;;;4.35;3.45;;;2.50;99.90;;;;;;5093095;28;20671;-87
2021/01/13 04:15:21;;;;;;;6.22;4.18;;;2.50;99.90;;;;;;5091990;28;20284;-87
2021/01/13 04:17:48;;;;;;;4.70;4.30;;;2.40;99.90;;;;;;5091561;28;20228;-87
2021/01/13 04:20:15;;;;;;;4.10;3.38;;;2.50;99.90;;;;;;5073661;28;20197;-86
2021/01/13 04:22:45;;;;;;;10.30;4.15;;;2.50;99.90;;;;;;5076291;28;20229;-85
2021/01/13 04:25:14;;;;;;;6.70;4.10;;;2.50;99.90;;;;;;5076850;28;20292;-86
2021/01/13 04:27:42;;;;;;;5.03;3.60;;;2.40;99.90;;;;;;5086387;28;20407;-85
2021/01/13 04:30:09;;;;;;;4.32;3.45;;;2.40;99.90;;;;;;5095864;28;20669;-84
2021/01/13 04:32:36;;;;;;;6.20;4.38;;;2.50;99.90;;;;;;5096882;28;20232;-85
2021/01/13 04:35:07;;;;;;;4.72;4.30;;;2.50;99.90;;;;;;5095919;28;20287;-85
2021/01/13 04:37:35;;;;;;;10.07;4.20;;;2.50;99.90;;;;;;5096379;28;20616;-86
2021/01/13 04:40:24;;;;;;;4.15;3.10;;;2.50;99.90;;;;;;5096219;28;20699;-86
2021/01/13 04:43:00;;;;;;;9.55;5.72;;;2.40;99.90;;;;;;5096273;28;20224;-85
2021/01/13 04:45:37;;;;;;;5.65;4.10;;;2.40;99.90;;;;;;5095345;28;20288;-85
2021/01/13 04:48:06;;;;;;;7.00;3.85;;;2.30;99.90;;;;;;5095177;28;20228;-85
2021/01/13 04:50:35;;;;;;;9.63;6.15;;;2.30;99.90;;;;;;5095963;28;20247;-84
2021/01/13 04:53:08;;;;;;;9.60;5.05;;;2.30;99.90;;;;;;5095978;28;20295;-87
2021/01/13 04:55:47;;;;;;;6.65;3.70;;;2.40;99.90;;;;;;5095183;28;20196;-86
2021/01/13 04:58:53;;;;;;;8.10;4.50;;;2.40;99.90;;;;;;5096370;28;20211;-86
2021/01/13 05:01:53;;;;;;;3.70;3.08;;;2.30;99.90;;;;;;5095398;28;20274;-86
2021/01/13 05:05:03;;;;;;;8.70;4.95;;;2.20;99.90;;;;;;5094942;28;20287;-85
2021/01/13 05:07:35;;;;;;;6.57;3.75;;;2.30;99.90;;;;;;5095917;28;20249;-85
2021/01/13 05:10:08;;;;;;;4.78;3.58;;;2.30;99.90;;;;;;5096066;28;20300;-86
2021/01/13 05:12:52;;;;;;;6.53;5.05;;;2.30;99.90;;;;;;5095508;28;20557;-87
2021/01/13 05:15:22;;;;;;;5.72;4.53;;;2.30;99.90;;;;;;5094646;28;20291;-85
2021/01/13 05:18:02;;;;;;;6.85;4.43;;;2.10;99.90;;;;;;5095571;28;20686;-86
2021/01/13 05:20:30;;;;;;;6.32;5.18;;;2.00;99.90;;;;;;5096477;28;20245;-85
2021/01/13 05:22:58;;;;;;;7.28;5.20;;;2.00;99.90;;;;;;5079330;28;20589;-87
2021/01/13 05:25:44;;;;;;;6.80;5.35;;;1.90;99.90;;;;;;5075741;28;20289;-87
2021/01/13 05:28:14;;;;;;;18.88;4.80;;;1.80;99.90;;;;;;5074984;28;20268;-85
2021/01/13 05:30:42;;;;;;;8.15;4.95;;;1.80;99.90;;;;;;5074206;28;20285;-88
2021/01/13 05:33:11;;;;;;;4.47;4.05;;;1.80;99.90;;;;;;5077125;28;20313;-87
2021/01/13 05:35:40;;;;;;;10.55;4.78;;;1.70;99.90;;;;;;5076039;28;20231;-87
2021/01/13 05:38:18;;;;;;;4.80;3.35;;;1.70;99.90;;;;;;5075382;28;20236;-88
2021/01/13 05:40:47;;;;;;;7.13;4.32;;;1.70;99.90;;;;;;5075500;28;20201;-88
2021/01/13 05:43:16;;;;;;;7.82;5.22;;;1.70;99.90;;;;;;5090355;28;20759;-88
2021/01/13 05:45:44;;;;;;;8.35;5.13;;;1.60;99.90;;;;;;5093852;28;20201;-89
2021/01/13 05:48:16;;;;;;;6.65;4.53;;;1.60;99.90;;;;;;5095307;28;20204;-90
2021/01/13 05:50:43;;;;;;;5.95;5.22;;;1.50;99.90;;;;;;5095399;28;20287;-90
2021/01/13 05:53:11;;;;;;;12.93;7.47;;;1.50;99.90;;;;;;5083305;28;20237;-90
2021/01/13 05:55:46;;;;;;;8.70;5.15;;;1.40;99.90;;;;;;5077982;28;20289;-88
2021/01/13 05:58:13;;;;;;;10.15;6.95;;;1.40;99.90;;;;;;5074308;28;20307;-88
2021/01/13 06:00:41;;;;;;;7.63;6.68;;;1.30;99.90;;;;;;5073536;28;20202;-89
2021/01/13 06:03:11;;;;;;;8.13;5.40;;;1.30;99.90;;;;;;5078219;28;20319;-87
2021/01/13 06:05:49;;;;;;;9.48;6.32;;;1.30;99.90;;;;;;5094739;28;20212;-89
2021/01/13 06:08:16;;;;;;;9.00;5.43;;;1.30;99.90;;;;;;5094121;28;20201;-89
2021/01/13 06:10:44;;;;;;;8.43;4.15;;;1.20;99.90;;;;;;5094175;28;20207;-89
2021/01/13 06:13:17;;;;;;;6.60;5.03;;;1.30;99.90;;;;;;5094629;28;20209;-88
2021/01/13 06:15:46;;;;;;;6.65;4.25;;;1.30;99.90;;;;;;5096887;28;20238;-88
2021/01/13 06:18:22;;;;;;;8.98;7.40;;;1.40;99.90;;;;;;5093712;28;20565;-89
2021/01/13 06:20:49;;;;;;;11.23;8.23;;;1.30;99.90;;;;;;5094978;28;20216;-89
2021/01/13 06:23:17;;;;;;;10.02;6.45;;;1.40;99.90;;;;;;5095899;28;20267;-88
2021/01/13 06:25:45;;;;;;;9.25;4.68;;;1.40;99.90;;;;;;5096185;28;20223;-88
2021/01/13 06:28:26;;;;;;;5.35;4.68;;;1.40;99.90;;;;;;5094813;28;20235;-88
2021/01/13 06:31:03;;;;;;;7.63;5.03;;;1.50;99.90;;;;;;5093287;28;20287;-88
2021/01/13 06:33:39;;;;;;;8.55;7.07;;;1.50;99.90;;;;;;5093746;28;20208;-88
2021/01/13 06:36:31;;;;;;;13.93;7.05;;;1.50;99.90;;;;;;5094115;28;20628;-88
2021/01/13 06:39:00;;;;;;;12.63;6.80;;;1.50;99.90;;;;;;5094319;28;20292;-88
2021/01/13 06:41:27;;;;;;;11.80;6.50;;;1.50;99.90;;;;;;5094072;28;20257;-88
2021/01/13 06:44:02;;;;;;;6.97;4.97;;;1.50;99.90;;;;;;5093910;28;20268;-88
2021/01/13 06:46:30;;;;;;;7.45;5.20;;;1.50;99.90;;;;;;5092855;28;20650;-86
2021/01/13 06:49:10;;;;;;;9.15;5.25;;;1.50;99.90;;;;;;5093912;28;20205;-88
2021/01/13 06:52:01;;;;;;;6.43;4.65;;;1.60;99.90;;;;;;5094054;28;20212;-88
2021/01/13 06:54:29;;;;;;;5.45;4.03;;;1.50;99.90;;;;;;5094144;28;20288;-87
2021/01/13 06:57:01;;;;;;;6.60;4.90;;;1.50;99.90;;;;;;5089455;28;20837;-87
2021/01/13 06:59:27;;;;;;;8.15;5.05;;;1.40;99.90;;;;;;5073381;28;20259;-86
2021/01/13 07:01:59;;;;;;;9.57;4.78;;;1.40;99.90;;;;;;5072233;28;20248;-86
2021/01/13 07:04:30;;;;;;;11.80;6.68;;;1.40;99.90;;;;;;5073068;28;20290;-87
2021/01/13 07:07:02;;;;;;;11.95;7.97;;;1.30;99.90;;;;;;5074668;28;20200;-87
2021/01/13 07:09:39;;;;;;;25.73;12.35;;;1.30;99.90;;;;;;5073293;28;20205;-86
2021/01/13 07:12:11;;;;;;;19.67;11.95;;;1.20;99.90;;;;;;5073780;28;20240;-87
2021/01/13 07:14:41;;;;;;;21.90;13.13;;;1.20;99.90;;;;;;5075922;28;20262;-87
2021/01/13 07:17:14;;;;;;;15.02;7.28;;;1.20;99.90;;;;;;5074971;28;20265;-89
2021/01/13 07:19:45;;;;;;;9.65;6.15;;;1.30;99.90;;;;;;5073486;28;20229;-86
2021/01/13 07:22:13;;;;;;;11.82;7.80;;;1.30;99.90;;;;;;5073608;28;20303;-85
2021/01/13 07:24:42;;;;;;;9.93;6.90;;;1.30;99.90;;;;;;5073359;28;20213;-84
2021/01/13 07:27:10;;;;;;;12.40;8.45;;;1.20;99.90;;;;;;5077211;28;20225;-85
2021/01/13 07:29:36;;;;;;;11.43;7.95;;;1.10;99.90;;;;;;5094233;28;20208;-90
2021/01/13 07:32:05;;;;;;;12.65;9.05;;;1.50;99.90;;;;;;5095177;28;20241;-90
2021/01/13 07:34:35;;;;;;;8.80;7.03;;;1.80;99.90;;;;;;5093538;28;20652;-91
2021/01/13 07:37:08;;;;;;;14.35;8.13;;;1.90;99.90;;;;;;5094820;28;20679;-89
2021/01/13 07:40:13;;;;;;;10.20;7.28;;;2.00;99.90;;;;;;5092568;28;20201;-90
2021/01/13 07:42:41;;;;;;;10.02;8.23;;;1.90;99.90;;;;;;5073767;28;20712;-91
2021/01/13 07:45:09;;;;;;;19.00;11.45;;;2.00;99.90;;;;;;5072554;28;20205;-88
2021/01/13 07:48:37;;;;;;;21.25;12.35;;;2.10;99.90;;;;;;5073691;28;20631;-88
2021/01/13 07:51:09;;;;;;;12.70;9.82;;;2.00;99.90;;;;;;5073672;28;20660;-87
2021/01/13 07:53:38;;;;;;;18.10;10.30;;;2.00;99.90;;;;;;5073377;28;20213;-88
2021/01/13 07:56:08;;;;;;;14.18;10.02;;;2.00;99.90;;;;;;5076255;28;20232;-84
2021/01/13 07:58:36;;;;;;;33.88;11.50;;;1.90;99.90;;;;;;5077642;28;20197;-85
2021/01/13 08:01:41;;;;;;;11.15;8.23;;;1.60;99.90;;;;;;5075471;28;20669;-85
2021/01/13 08:05:13;;;;;;;13.55;9.30;;;1.50;99.90;;;;;;5077114;28;20248;-84
2021/01/13 08:07:44;;;;;;;17.02;9.50;;;1.30;99.90;;;;;;5077268;28;20201;-82
2021/01/13 08:10:11;;;;;;;13.25;9.85;;;1.30;99.90;;;;;;5078847;28;20209;-81
2021/01/13 08:13:29;;;;;;;11.75;8.90;;;1.30;99.90;;;;;;5078752;28;20286;-83
2021/01/13 08:16:45;;;;;;;14.70;8.25;;;1.40;99.90;;;;;;5065555;28;20288;-83
2021/01/13 08:20:04;;;;;;;18.77;9.63;;;1.40;99.90;;;;;;5077044;28;20244;-83
2021/01/13 08:22:33;;;;;;;17.05;10.05;;;1.40;99.90;;;;;;5076533;28;20712;-83
2021/01/13 08:25:12;;;;;;;17.42;12.00;;;1.40;99.90;;;;;;5076368;28;20688;-83
2021/01/13 08:27:42;;;;;;;13.18;8.68;;;1.40;99.90;;;;;;5076287;28;20252;-83
2021/01/13 08:30:15;;;;;;;18.20;10.70;;;1.40;99.90;;;;;;5075163;28;20247;-83
2021/01/13 08:32:43;;;;;;;12.90;10.68;;;1.40;99.90;;;;;;5090102;28;20244;-83
2021/01/13 08:35:10;;;;;;;20.33;12.05;;;1.50;99.90;;;;;;5095670;28;20665;-83
2021/01/13 08:37:38;;;;;;;14.25;11.55;;;1.60;99.90;;;;;;5096623;28;20269;-84
2021/01/13 08:40:27;;;;;;;32.22;17.23;;;1.60;99.90;;;;;;5096869;28;20204;-88
2021/01/13 08:43:09;;;;;;;45.65;22.77;;;1.60;99.90;;;;;;5072266;28;20286;-83
2021/01/13 08:45:37;;;;;;;38.25;18.02;;;1.70;99.90;;;;;;5075681;28;20229;-84
2021/01/13 08:48:10;;;;;;;22.98;13.63;;;1.90;99.90;;;;;;5079132;28;20197;-85
2021/01/13 08:50:38;;;;;;;41.40;20.77;;;2.00;99.90;;;;;;5097076;28;20621;-85
2021/01/13 08:53:05;;;;;;;24.30;15.57;;;2.20;99.90;;;;;;5097463;28;20217;-87
2021/01/13 08:55:34;;;;;;;26.15;15.25;;;2.30;99.90;;;;;;5085677;28;20685;-85
2021/01/13 08:58:05;;;;;;;15.95;10.95;;;2.30;99.90;;;;;;5076781;28;20209;-86
2021/01/13 09:00:33;;;;;;;14.48;7.40;;;2.40;99.90;;;;;;5074724;28;20240;-86
2021/01/13 09:03:10;;;;;;;12.77;7.35;;;2.60;99.90;;;;;;5095786;28;20225;-88
2021/01/13 09:05:40;;;;;;;13.30;6.47;;;3.10;99.90;;;;;;5098142;28;20223;-87
2021/01/13 09:08:09;;;;;;;6.20;5.53;;;3.20;99.90;;;;;;5080255;28;20567;-90
2021/01/13 09:10:48;;;;;;;13.68;8.13;;;3.40;99.90;;;;;;5075539;28;20217;-87
2021/01/13 09:13:43;;;;;;;6.63;5.15;;;3.20;99.90;;;;;;5075925;28;20201;-83
2021/01/13 09:16:31;;;;;;;9.05;4.75;;;2.90;99.90;;;;;;5048212;28;20236;-81
2021/01/13 09:18:59;;;;;;;6.82;4.80;;;2.80;99.90;;;;;;5075588;28;20206;-83
2021/01/13 09:21:30;;;;;;;5.78;4.40;;;2.90;99.90;;;;;;5074508;28;20724;-83
2021/01/13 09:23:57;;;;;;;7.75;5.15;;;2.90;99.90;;;;;;5076098;28;20308;-83
2021/01/13 09:26:31;;;;;;;8.30;4.78;;;2.80;99.90;;;;;;5093911;28;20193;-84
2021/01/13 09:29:04;;;;;;;7.90;6.93;;;2.80;99.90;;;;;;5099469;28;20218;-83
2021/01/13 09:31:30;;;;;;;12.65;8.82;;;2.80;99.90;;;;;;5098621;28;20200;-82
2021/01/13 09:33:58;;;;;;;19.92;11.93;;;2.80;99.90;;;;;;5079729;28;20613;-83
2021/01/13 09:36:28;;;;;;;13.70;6.95;;;2.70;99.90;;;;;;5077435;28;20241;-83
2021/01/13 09:39:16;;;;;;;10.25;6.53;;;2.70;99.90;;;;;;5076090;28;20737;-83
2021/01/13 09:41:56;;;;;;;6.55;5.22;;;2.60;99.90;;;;;;5076683;28;20285;-83
2021/01/13 09:44:28;;;;;;;7.22;6.07;;;2.70;99.90;;;;;;5075857;28;20616;-83
2021/01/13 09:47:02;;;;;;;16.60;8.32;;;2.80;99.90;;;;;;5073632;28;20279;-82
2021/01/13 09:49:29;;;;;;;34.88;19.38;;;3.00;99.90;;;;;;5078696;28;20288;-84
2021/01/13 09:51:55;;;;;;;45.40;24.75;;;3.10;99.90;;;;;;5075188;28;20284;-84
2021/01/13 09:54:24;;;;;;;23.67;12.55;;;3.10;99.90;;;;;;5074459;28;20237;-84
2021/01/13 09:56:56;;;;;;;15.13;7.55;;;3.30;99.90;;;;;;5074955;28;20197;-84
2021/01/13 09:59:25;;;;;;;47.05;25.40;;;3.50;99.90;;;;;;5075500;28;20201;-84
2021/01/13 10:01:57;;;;;;;18.63;11.55;;;3.50;99.90;;;;;;5072925;28;20205;-84
2021/01/13 10:04:24;;;;;;;17.23;11.27;;;3.60;99.90;;;;;;5074718;28;20209;-84
2021/01/13 10:06:56;;;;;;;45.08;23.10;;;3.80;99.90;;;;;;5074709;28;20248;-84
2021/01/13 10:09:23;;;;;;;39.58;20.20;;;3.80;99.90;;;;;;5074455;28;20296;-83
2021/01/13 10:11:57;;;;;;;47.40;22.42;;;3.90;99.90;;;;;;5073382;28;20248;-83
2021/01/13 10:14:24;;;;;;;47.88;19.67;;;3.90;99.90;;;;;;5074199;28;20217;-84
2021/01/13 10:16:51;;;;;;;102.25;47.55;;;3.90;99.90;;;;;;5072983;28;20197;-83
2021/01/13 10:19:20;;;;;;;77.47;37.38;;;4.00;99.90;;;;;;5073237;28;20289;-84
2021/01/13 10:21:48;;;;;;;53.63;26.05;;;4.00;99.90;;;;;;5076695;28;20541;-84
2021/01/13 10:24:17;;;;;;;14.80;9.93;;;4.10;99.90;;;;;;5094520;28;20731;-85
2021/01/13 10:26:45;;;;;;;14.40;8.90;;;4.10;99.90;;;;;;5094205;28;20671;-84
2021/01/13 10:29:14;;;;;;;27.25;14.05;;;4.30;99.90;;;;;;5094556;28;20319;-85
2021/01/13 10:31:41;;;;;;;6.40;4.63;;;4.20;99.90;;;;;;5093583;28;20240;-88
2021/01/13 10:34:12;;;;;;;26.17;13.18;;;4.20;99.90;;;;;;5095212;28;20217;-85
2021/01/13 10:36:42;;;;;;;20.00;11.52;;;4.20;99.90;;;;;;5092610;28;20197;-80
2021/01/13 10:39:15;;;;;;;12.10;7.20;;;4.40;99.90;;;;;;5073515;28;20297;-84
2021/01/13 10:41:43;;;;;;;5.97;4.15;;;4.50;99.90;;;;;;5073705;28;20205;-84
2021/01/13 10:44:13;;;;;;;3.00;2.03;;;4.50;99.90;;;;;;5072941;28;20288;-86
2021/01/13 10:46:49;;;;;;;4.95;3.25;;;4.70;99.90;;;;;;5072554;28;20240;-85
2021/01/13 10:49:21;;;;;;;4.00;2.17;;;4.70;99.90;;;;;;5074653;28;20262;-89
2021/01/13 10:51:48;;;;;;;42.20;22.38;;;4.30;99.90;;;;;;5073887;28;20626;-84
2021/01/13 10:54:19;;;;;;;16.95;9.85;;;4.10;99.90;;;;;;5073651;28;20233;-86
2021/01/13 10:56:46;;;;;;;6.85;4.00;;;4.20;99.90;;;;;;5073610;28;20198;-86
2021/01/13 10:59:16;;;;;;;7.90;4.72;;;4.30;99.90;;;;;;5073041;28;20315;-88
2021/01/13 11:01:48;;;;;;;11.48;7.25;;;4.50;99.90;;;;;;5071376;28;20289;-91
2021/01/13 11:04:39;;;;;;;5.68;2.97;;;4.80;99.90;;;;;;5073695;28;20241;-83
2021/01/13 11:07:08;;;;;;;5.85;4.97;;;4.80;99.90;;;;;;5070008;28;20639;-84
2021/01/13 11:09:36;;;;;;;10.23;7.25;;;4.80;99.90;;;;;;5072857;28;20194;-85
2021/01/13 11:12:04;;;;;;;6.93;2.20;;;4.80;99.90;;;;;;5074134;28;20251;-86
2021/01/13 11:14:40;;;;;;;4.28;2.47;;;4.60;99.90;;;;;;5077217;28;20696;-86
2021/01/13 11:17:12;;;;;;;11.23;8.32;;;4.60;99.90;;;;;;5075600;28;20201;-85
2021/01/13 11:19:41;;;;;;;6.45;3.63;;;4.60;99.90;;;;;;5078454;28;20765;-87
2021/01/13 11:22:09;;;;;;;12.18;7.82;;;4.60;99.90;;;;;;5096014;28;20255;-88
2021/01/13 11:24:44;;;;;;;5.43;3.10;;;4.50;99.90;;;;;;5093860;28;20219;-86
2021/01/13 11:27:14;;;;;;;4.90;3.40;;;4.60;99.90;;;;;;5075904;28;20286;-90
2021/01/13 11:29:46;;;;;;;5.10;2.53;;;4.60;99.90;;;;;;5075310;28;20221;-89
2021/01/13 11:32:16;;;;;;;3.80;1.67;;;4.60;99.90;;;;;;5073213;28;20752;-88
2021/01/13 11:34:50;;;;;;;6.60;1.42;;;4.70;99.90;;;;;;5076222;28;20263;-90
2021/01/13 11:37:38;;;;;;;5.22;1.30;;;4.40;99.90;;;;;;5042524;28;20255;-84
2021/01/13 11:40:08;;;;;;;6.85;1.63;;;4.50;99.90;;;;;;5077022;28;20237;-84
2021/01/13 11:42:57;;;;;;;2.47;1.70;;;4.50;99.90;;;;;;5075964;28;20256;-90
2021/01/13 11:45:29;;;;;;;1.70;1.60;;;4.50;99.90;;;;;;5093748;28;20273;-89
2021/01/13 11:47:58;;;;;;;3.35;1.67;;;4.60;99.90;;;;;;5095955;28;20239;-89
2021/01/13 11:50:25;;;;;;;10.13;2.25;;;4.60;99.90;;;;;;5094983;28;20244;-86
2021/01/13 11:52:59;;;;;;;2.25;2.00;;;4.80;99.90;;;;;;5093590;28;20942;-92
2021/01/13 11:55:29;;;;;;;1.70;1.27;;;4.70;99.90;;;;;;5076169;28;20590;-87
2021/01/13 11:57:56;;;;;;;1.60;1.50;;;4.80;99.90;;;;;;5076601;28;20259;-89
2021/01/13 12:00:27;;;;;;;4.78;1.42;;;4.80;99.90;;;;;;5073006;28;20233;-86
2021/01/13 12:02:54;;;;;;;2.38;1.00;;;4.60;99.90;;;;;;5073039;28;20315;-90
2021/01/13 12:05:29;;;;;;;1.20;1.10;;;4.60;99.90;;;;;;5073279;28;20205;-90
2021/01/13 12:08:00;;;;;;;3.22;1.42;;;4.50;99.90;;;;;;5073308;28;20258;-87
2021/01/13 12:10:31;;;;;;;1.73;0.95;;;4.60;99.90;;;;;;5073173;28;20320;-88
2021/01/13 12:13:15;;;;;;;3.05;2.13;;;4.50;99.90;;;;;;5073517;28;20265;-89
2021/01/13 12:15:55;;;;;;;9.73;1.38;;;4.50;99.90;;;;;;5071955;28;20280;-90
2021/01/13 12:18:34;;;;;;;5.35;1.05;;;4.60;99.90;;;;;;5073465;28;20209;-88
2021/01/13 12:21:23;;;;;;;1.92;1.02;;;4.50;99.90;;;;;;5075092;28;20212;-93
2021/01/13 12:23:51;;;;;;;4.57;1.75;;;4.60;99.90;;;;;;5082342;28;20236;-88
2021/01/13 12:26:19;;;;;;;3.17;1.40;;;4.60;99.90;;;;;;5093564;28;20634;-86
2021/01/13 12:28:49;;;;;;;5.60;1.35;;;4.80;99.90;;;;;;5093559;28;20232;-89
2021/01/13 12:31:18;;;;;;;10.98;1.55;;;4.80;99.90;;;;;;5092409;28;20295;-90
2021/01/13 12:33:50;;;;;;;2.95;1.60;;;4.70;99.90;;;;;;5091882;28;20638;-92
2021/01/13 12:36:18;;;;;;;0.52;0.50;;;4.80;99.90;;;;;;5093240;28;20208;-84
2021/01/13 12:38:46;;;;;;;3.80;1.10;;;4.60;99.90;;;;;;5092447;28;20265;-87
2021/01/13 12:41:19;;;;;;;3.15;1.40;;;4.50;99.90;;;;;;5092992;28;20204;-88
2021/01/13 12:43:46;;;;;;;2.03;1.50;;;4.50;99.90;;;;;;5096189;28;20239;-88
2021/01/13 12:46:13;;;;;;;4.40;1.70;;;4.60;99.90;;;;;;5094981;28;20299;-91
2021/01/13 12:48:40;;;;;;;2.55;1.60;;;4.60;99.90;;;;;;5096601;28;20656;-88
2021/01/13 12:51:07;;;;;;;1.67;1.30;;;4.60;99.90;;;;;;5098303;28;20363;-92
2021/01/13 12:53:36;;;;;;;1.15;0.95;;;4.70;99.90;;;;;;5098833;28;20197;-89
2021/01/13 12:56:05;;;;;;;1.25;1.15;;;4.60;99.90;;;;;;5097182;28;20236;-91
2021/01/13 12:58:31;;;;;;;1.88;0.82;;;4.60;99.90;;;;;;5097846;28;20251;-91
2021/01/13 13:00:58;;;;;;;2.75;1.48;;;4.70;99.90;;;;;;5096437;28;20196;-86
2021/01/13 13:03:25;;;;;;;5.60;1.20;;;4.70;99.90;;;;;;5098736;28;20278;-91
2021/01/13 13:05:52;;;;;;;11.73;4.22;;;4.70;99.90;;;;;;5097581;28;20244;-91
2021/01/13 13:08:18;;;;;;;5.22;2.05;;;4.60;99.90;;;;;;5099768;28;20749;-90
2021/01/13 13:10:45;;;;;;;1.73;1.30;;;4.70;99.90;;;;;;5098262;28;20240;-89
2021/01/13 13:13:11;;;;;;;2.47;0.90;;;4.80;99.90;;;;;;5098952;28;20233;-90
2021/01/13 13:15:38;;;;;;;3.35;1.60;;;4.90;99.90;;;;;;5096992;28;20274;-90
2021/01/13 13:18:04;;;;;;;1.00;0.70;;;4.80;99.90;;;;;;5096766;28;20224;-86
2021/01/13 13:20:36;;;;;;;8.13;1.50;;;4.80;99.90;;;;;;5098152;28;20245;-91
2021/01/13 13:23:04;;;;;;;3.08;1.60;;;4.80;99.90;;;;;;5095955;28;20240;-89
2021/01/13 13:25:30;;;;;;;1.80;1.63;;;4.70;99.90;;;;;;5097077;28;20231;-94
2021/01/13 13:27:57;;;;;;;2.35;1.00;;;4.70;99.90;;;;;;5101636;27;20252;-90